sensor_id;sensor_type;location;lat;lon;timestamp;pressure;altitude;pressure_sealevel;temperature;humidity
17260;BME280;8746;49.230;9.220;2023-02-12T00:01:18;102008.84;;;3.77;97.11
17260;BME280;8746;49.230;9.220;2023-02-12T00:03:44;102000.94;;;3.72;96.91
17260;BME280;8746;49.230;9.220;2023-02-12T00:06:10;102009.63;;;3.71;97.32
17260;BME280;8746;49.230;9.220;2023-02-12T00:08:36;102016.59;;;3.72;97.17
17260;BME280;8746;49.230;9.220;2023-02-12T00:11:13;102013.94;;;3.71;97.09
17260;BME280;8746;49.230;9.220;2023-02-12T00:13:39;102015.53;;;3.62;97.58
17260;BME280;8746;49.230;9.220;2023-02-12T00:16:12;102014.81;;;3.69;97.46
17260;BME280;8746;49.230;9.220;2023-02-12T00:18:38;102012.97;;;3.65;97.48
17260;BME280;8746;49.230;9.220;2023-02-12T00:21:04;102015.56;;;3.65;97.48
17260;BME280;8746;49.230;9.220;2023-02-12T00:23:30;102014.59;;;3.60;97.66
17260;BME280;8746;49.230;9.220;2023-02-12T00:25:56;102011.97;;;3.59;97.58
17260;BME280;8746;49.230;9.220;2023-02-12T00:28:21;102014.47;;;3.54;97.92
17260;BME280;8746;49.230;9.220;2023-02-12T00:30:47;102016.91;;;3.46;98.56
17260;BME280;8746;49.230;9.220;2023-02-12T00:33:12;102014.25;;;3.45;98.41
17260;BME280;8746;49.230;9.220;2023-02-12T00:35:38;102007.31;;;3.45;98.44
17260;BME280;8746;49.230;9.220;2023-02-12T00:38:03;102007.44;;;3.50;98.47
17260;BME280;8746;49.230;9.220;2023-02-12T00:40:29;102006.38;;;3.42;98.89
17260;BME280;8746;49.230;9.220;2023-02-12T00:42:54;102015.31;;;3.53;98.67
17260;BME280;8746;49.230;9.220;2023-02-12T00:45:19;102015.44;;;3.59;97.95
17260;BME280;8746;49.230;9.220;2023-02-12T00:47:45;102014.50;;;3.57;97.60
17260;BME280;8746;49.230;9.220;2023-02-12T00:50:10;102004.88;;;3.53;97.86
17260;BME280;8746;49.230;9.220;2023-02-12T00:52:36;102012.66;;;3.50;98.31
17260;BME280;8746;49.230;9.220;2023-02-12T00:55:01;102009.09;;;3.48;98.52
17260;BME280;8746;49.230;9.220;2023-02-12T00:57:27;102007.31;;;3.45;98.50
17260;BME280;8746;49.230;9.220;2023-02-12T00:59:52;102014.31;;;3.46;98.55
17260;BME280;8746;49.230;9.220;2023-02-12T01:02:18;102011.78;;;3.51;98.72
17260;BME280;8746;49.230;9.220;2023-02-12T01:04:43;102012.78;;;3.56;98.31
17260;BME280;8746;49.230;9.220;2023-02-12T01:07:09;102017.91;;;3.53;98.27
17260;BME280;8746;49.230;9.220;2023-02-12T01:09:34;102011.78;;;3.51;98.38
17260;BME280;8746;49.230;9.220;2023-02-12T01:12:00;102014.47;;;3.56;98.41
17260;BME280;8746;49.230;9.220;2023-02-12T01:14:25;102020.66;;;3.59;98.20
17260;BME280;8746;49.230;9.220;2023-02-12T01:16:51;102016.25;;;3.57;98.17
17260;BME280;8746;49.230;9.220;2023-02-12T01:19:16;102012.78;;;3.56;98.25
17260;BME280;8746;49.230;9.220;2023-02-12T01:21:41;102018.03;;;3.58;98.32
17260;BME280;8746;49.230;9.220;2023-02-12T01:24:07;102020.47;;;3.50;98.67
17260;BME280;8746;49.230;9.220;2023-02-12T01:26:32;102016.81;;;3.42;99.15
17260;BME280;8746;49.230;9.220;2023-02-12T01:29:00;102018.50;;;3.41;99.14
17260;BME280;8746;49.230;9.220;2023-02-12T01:31:28;102024.38;;;3.31;99.61
17260;BME280;8746;49.230;9.220;2023-02-12T01:33:57;102018.22;;;3.27;99.39
17260;BME280;8746;49.230;9.220;2023-02-12T01:36:23;102013.91;;;3.29;99.74
17260;BME280;8746;49.230;9.220;2023-02-12T01:38:49;102023.56;;;3.33;99.86
17260;BME280;8746;49.230;9.220;2023-02-12T01:41:18;102022.59;;;3.30;99.83
17260;BME280;8746;49.230;9.220;2023-02-12T01:43:44;102025.16;;;3.27;100.00
17260;BME280;8746;49.230;9.220;2023-02-12T01:46:12;102019.97;;;3.28;99.91
17260;BME280;8746;49.230;9.220;2023-02-12T01:48:43;102017.34;;;3.27;99.82
17260;BME280;8746;49.230;9.220;2023-02-12T01:51:16;102012.19;;;3.31;99.52
17260;BME280;8746;49.230;9.220;2023-02-12T01:53:48;102007.91;;;3.33;99.71
17260;BME280;8746;49.230;9.220;2023-02-12T01:56:16;102008.88;;;3.39;99.29
17260;BME280;8746;49.230;9.220;2023-02-12T01:58:43;102013.97;;;3.32;99.85
17260;BME280;8746;49.230;9.220;2023-02-12T02:01:12;102012.31;;;3.36;99.83
17260;BME280;8746;49.230;9.220;2023-02-12T02:03:41;102008.94;;;3.40;99.45
17260;BME280;8746;49.230;9.220;2023-02-12T02:06:12;102004.66;;;3.44;99.28
17260;BME280;8746;49.230;9.220;2023-02-12T02:08:39;102008.19;;;3.46;99.27
17260;BME280;8746;49.230;9.220;2023-02-12T02:11:05;102008.13;;;3.43;99.42
17260;BME280;8746;49.230;9.220;2023-02-12T02:13:51;102002.91;;;3.43;99.54
17260;BME280;8746;49.230;9.220;2023-02-12T02:16:38;102008.84;;;3.35;99.76
17260;BME280;8746;49.230;9.220;2023-02-12T02:20:00;102011.50;;;3.39;99.57
17260;BME280;8746;49.230;9.220;2023-02-12T02:27:48;102003.66;;;3.39;99.99
17260;BME280;8746;49.230;9.220;2023-02-12T02:36:22;102005.53;;;3.43;99.60
17260;BME280;8746;49.230;9.220;2023-02-12T02:38:54;102003.78;;;3.43;99.79
17260;BME280;8746;49.230;9.220;2023-02-12T02:43:51;101995.03;;;3.41;99.71
17260;BME280;8746;49.230;9.220;2023-02-12T02:49:03;101999.50;;;3.45;99.66
17260;BME280;8746;49.230;9.220;2023-02-12T02:51:32;101999.59;;;3.50;99.75
17260;BME280;8746;49.230;9.220;2023-02-12T02:56:32;102001.66;;;3.65;99.47
17260;BME280;8746;49.230;9.220;2023-02-12T02:59:07;102007.50;;;3.55;99.36
17260;BME280;8746;49.230;9.220;2023-02-12T03:01:47;102003.03;;;3.49;99.60
17260;BME280;8746;49.230;9.220;2023-02-12T03:04:20;101998.09;;;3.61;99.21
17260;BME280;8746;49.230;9.220;2023-02-12T03:09:28;101997.63;;;3.41;100.00
17260;BME280;8746;49.230;9.220;2023-02-12T03:11:59;102001.03;;;3.37;99.95
17260;BME280;8746;49.230;9.220;2023-02-12T03:14:28;101998.69;;;3.49;99.65
17260;BME280;8746;49.230;9.220;2023-02-12T03:17:03;102002.91;;;3.43;99.63
17260;BME280;8746;49.230;9.220;2023-02-12T03:19:35;102012.88;;;3.23;100.00
17260;BME280;8746;49.230;9.220;2023-02-12T03:22:14;102007.78;;;3.29;100.00
17260;BME280;8746;49.230;9.220;2023-02-12T03:25:14;102001.75;;;3.30;100.00
17260;BME280;8746;49.230;9.220;2023-02-12T03:27:47;102006.00;;;3.26;100.00
17260;BME280;8746;49.230;9.220;2023-02-12T03:30:14;102005.88;;;3.20;100.00
17260;BME280;8746;49.230;9.220;2023-02-12T03:35:56;102014.66;;;3.25;100.00
17260;BME280;8746;49.230;9.220;2023-02-12T03:46:13;102010.53;;;3.33;100.00
17260;BME280;8746;49.230;9.220;2023-02-12T03:48:48;101999.13;;;3.30;100.00
17260;BME280;8746;49.230;9.220;2023-02-12T03:53:50;102009.59;;;3.31;100.00
17260;BME280;8746;49.230;9.220;2023-02-12T03:56:42;102014.94;;;3.37;100.00
17260;BME280;8746;49.230;9.220;2023-02-12T03:59:09;102011.31;;;3.29;100.00
17260;BME280;8746;49.230;9.220;2023-02-12T04:01:36;102015.72;;;3.32;100.00
17260;BME280;8746;49.230;9.220;2023-02-12T04:04:06;102015.31;;;3.15;100.00
17260;BME280;8746;49.230;9.220;2023-02-12T04:06:33;102022.91;;;3.05;100.00
17260;BME280;8746;49.230;9.220;2023-02-12T04:09:02;102021.22;;;3.08;100.00
17260;BME280;8746;49.230;9.220;2023-02-12T04:14:16;102026.44;;;3.08;100.00
17260;BME280;8746;49.230;9.220;2023-02-12T04:16:53;102023.00;;;3.09;100.00
17260;BME280;8746;49.230;9.220;2023-02-12T04:19:39;102024.75;;;3.10;100.00
17260;BME280;8746;49.230;9.220;2023-02-12T04:22:13;102019.63;;;3.14;100.00
17260;BME280;8746;49.230;9.220;2023-02-12T04:24:53;102026.72;;;3.20;100.00
17260;BME280;8746;49.230;9.220;2023-02-12T04:27:34;102027.66;;;3.22;100.00
17260;BME280;8746;49.230;9.220;2023-02-12T04:30:08;102038.22;;;3.27;100.00
17260;BME280;8746;49.230;9.220;2023-02-12T04:32:49;102030.25;;;3.22;100.00
17260;BME280;8746;49.230;9.220;2023-02-12T04:37:54;102035.47;;;3.22;100.00
17260;BME280;8746;49.230;9.220;2023-02-12T04:40:24;102033.78;;;3.24;100.00
17260;BME280;8746;49.230;9.220;2023-02-12T04:42:51;102036.31;;;3.21;100.00
17260;BME280;8746;49.230;9.220;2023-02-12T04:45:25;102038.00;;;3.19;100.00
17260;BME280;8746;49.230;9.220;2023-02-12T04:47:51;102038.03;;;3.20;100.00
17260;BME280;8746;49.230;9.220;2023-02-12T04:50:17;102041.72;;;3.29;100.00
17260;BME280;8746;49.230;9.220;2023-02-12T04:52:42;102033.41;;;3.09;100.00
17260;BME280;8746;49.230;9.220;2023-02-12T04:55:08;102030.88;;;3.12;100.00
17260;BME280;8746;49.230;9.220;2023-02-12T04:57:33;102027.97;;;2.99;100.00
17260;BME280;8746;49.230;9.220;2023-02-12T04:59:59;102032.28;;;2.97;100.00
17260;BME280;8746;49.230;9.220;2023-02-12T05:02:24;102032.19;;;2.94;100.00
17260;BME280;8746;49.230;9.220;2023-02-12T05:04:49;102032.16;;;2.93;100.00
17260;BME280;8746;49.230;9.220;2023-02-12T05:07:15;102027.00;;;2.96;100.00
17260;BME280;8746;49.230;9.220;2023-02-12T05:09:40;102031.66;;;3.08;100.00
17260;BME280;8746;49.230;9.220;2023-02-12T05:12:06;102039.50;;;3.09;100.00
17260;BME280;8746;49.230;9.220;2023-02-12T05:14:31;102036.63;;;2.98;100.00
17260;BME280;8746;49.230;9.220;2023-02-12T05:16:57;102038.19;;;2.90;100.00
17260;BME280;8746;49.230;9.220;2023-02-12T05:19:22;102036.47;;;2.92;100.00
17260;BME280;8746;49.230;9.220;2023-02-12T05:21:49;102044.13;;;2.84;100.00
17260;BME280;8746;49.230;9.220;2023-02-12T05:24:15;102042.34;;;2.83;100.00
17260;BME280;8746;49.230;9.220;2023-02-12T05:26:40;102034.50;;;2.82;100.00
17260;BME280;8746;49.230;9.220;2023-02-12T05:29:06;102037.22;;;2.86;100.00
17260;BME280;8746;49.230;9.220;2023-02-12T05:31:32;102044.28;;;2.91;100.00
17260;BME280;8746;49.230;9.220;2023-02-12T05:33:57;102043.75;;;3.05;100.00
17260;BME280;8746;49.230;9.220;2023-02-12T05:36:23;102044.59;;;3.04;100.00
17260;BME280;8746;49.230;9.220;2023-02-12T05:38:50;102042.72;;;2.97;100.00
17260;BME280;8746;49.230;9.220;2023-02-12T05:41:18;102033.28;;;3.02;100.00
17260;BME280;8746;49.230;9.220;2023-02-12T05:43:44;102040.47;;;3.13;100.00
17260;BME280;8746;49.230;9.220;2023-02-12T05:46:11;102037.53;;;3.35;100.00
17260;BME280;8746;49.230;9.220;2023-02-12T05:48:37;102047.13;;;3.36;100.00
17260;BME280;8746;49.230;9.220;2023-02-12T05:51:11;102044.97;;;3.18;100.00
17260;BME280;8746;49.230;9.220;2023-02-12T05:53:39;102049.06;;;3.09;100.00
17260;BME280;8746;49.230;9.220;2023-02-12T05:56:12;102052.38;;;3.01;100.00
17260;BME280;8746;49.230;9.220;2023-02-12T05:58:39;102047.84;;;2.94;100.00
17260;BME280;8746;49.230;9.220;2023-02-12T06:01:10;102060.03;;;2.95;100.00
17260;BME280;8746;49.230;9.220;2023-02-12T06:03:36;102048.38;;;3.16;100.00
17260;BME280;8746;49.230;9.220;2023-02-12T06:06:02;102051.56;;;3.04;100.00
17260;BME280;8746;49.230;9.220;2023-02-12T06:08:28;102055.78;;;2.99;100.00
17260;BME280;8746;49.230;9.220;2023-02-12T06:10:58;102057.50;;;2.98;100.00
17260;BME280;8746;49.230;9.220;2023-02-12T06:13:24;102059.28;;;3.01;100.00
17260;BME280;8746;49.230;9.220;2023-02-12T06:15:49;102051.56;;;3.04;100.00
17260;BME280;8746;49.230;9.220;2023-02-12T06:18:15;102050.75;;;3.07;100.00
17260;BME280;8746;49.230;9.220;2023-02-12T06:20:40;102058.53;;;3.05;100.00
17260;BME280;8746;49.230;9.220;2023-02-12T06:23:05;102056.22;;;3.17;100.00
17260;BME280;8746;49.230;9.220;2023-02-12T06:25:31;102053.75;;;3.22;100.00
17260;BME280;8746;49.230;9.220;2023-02-12T06:27:56;102064.19;;;3.24;100.00
17260;BME280;8746;49.230;9.220;2023-02-12T06:30:21;102067.66;;;3.23;100.00
17260;BME280;8746;49.230;9.220;2023-02-12T06:32:50;102062.44;;;3.23;100.00
17260;BME280;8746;49.230;9.220;2023-02-12T06:35:15;102065.72;;;3.14;100.00
17260;BME280;8746;49.230;9.220;2023-02-12T06:37:41;102071.84;;;3.16;100.00
17260;BME280;8746;49.230;9.220;2023-02-12T06:40:07;102078.66;;;3.11;100.00
17260;BME280;8746;49.230;9.220;2023-02-12T06:42:32;102080.28;;;3.05;100.00
17260;BME280;8746;49.230;9.220;2023-02-12T06:44:57;102069.91;;;3.07;100.00
17260;BME280;8746;49.230;9.220;2023-02-12T06:47:23;102078.66;;;3.11;100.00
17260;BME280;8746;49.230;9.220;2023-02-12T06:49:48;102076.91;;;3.10;100.00
17260;BME280;8746;49.230;9.220;2023-02-12T06:52:13;102077.75;;;3.09;100.00
17260;BME280;8746;49.230;9.220;2023-02-12T06:54:39;102078.34;;;2.98;100.00
17260;BME280;8746;49.230;9.220;2023-02-12T06:57:04;102068.16;;;3.08;100.00
17260;BME280;8746;49.230;9.220;2023-02-12T06:59:30;102074.19;;;3.05;100.00
17260;BME280;8746;49.230;9.220;2023-02-12T07:01:55;102081.19;;;3.08;100.00
17260;BME280;8746;49.230;9.220;2023-02-12T07:04:20;102075.75;;;2.98;100.00
17260;BME280;8746;49.230;9.220;2023-02-12T07:06:46;102081.81;;;2.97;100.00
17260;BME280;8746;49.230;9.220;2023-02-12T07:09:11;102080.22;;;3.02;100.00
17260;BME280;8746;49.230;9.220;2023-02-12T07:11:37;102084.66;;;3.07;100.00
17260;BME280;8746;49.230;9.220;2023-02-12T07:14:02;102081.09;;;3.03;100.00
17260;BME280;8746;49.230;9.220;2023-02-12T07:16:28;102086.47;;;3.11;100.00
17260;BME280;8746;49.230;9.220;2023-02-12T07:18:53;102077.13;;;3.19;100.00
17260;BME280;8746;49.230;9.220;2023-02-12T07:21:19;102090.41;;;3.28;100.00
17260;BME280;8746;49.230;9.220;2023-02-12T07:23:49;102086.03;;;3.27;100.00
17260;BME280;8746;49.230;9.220;2023-02-12T07:26:16;102089.06;;;3.46;100.00
17260;BME280;8746;49.230;9.220;2023-02-12T07:28:42;102086.31;;;3.40;100.00
17260;BME280;8746;49.230;9.220;2023-02-12T07:31:12;102084.63;;;3.42;100.00
17260;BME280;8746;49.230;9.220;2023-02-12T07:33:39;102084.63;;;3.40;100.00
17260;BME280;8746;49.230;9.220;2023-02-12T07:36:07;102085.16;;;3.63;100.00
17260;BME280;8746;49.230;9.220;2023-02-12T07:38:33;102089.44;;;3.61;100.00
17260;BME280;8746;49.230;9.220;2023-02-12T07:41:09;102090.81;;;3.45;100.00
17260;BME280;8746;49.230;9.220;2023-02-12T07:43:34;102098.94;;;3.58;100.00
17260;BME280;8746;49.230;9.220;2023-02-12T07:46:15;102093.44;;;3.47;100.00
17260;BME280;8746;49.230;9.220;2023-02-12T07:48:41;102099.66;;;3.52;100.00
17260;BME280;8746;49.230;9.220;2023-02-12T07:51:09;102094.56;;;3.58;100.00
17260;BME280;8746;49.230;9.220;2023-02-12T07:53:35;102098.38;;;3.71;100.00
17260;BME280;8746;49.230;9.220;2023-02-12T07:56:24;102095.78;;;3.73;100.00
17260;BME280;8746;49.230;9.220;2023-02-12T07:58:55;102101.81;;;3.70;100.00
17260;BME280;8746;49.230;9.220;2023-02-12T08:01:25;102106.38;;;3.80;100.00
17260;BME280;8746;49.230;9.220;2023-02-12T08:03:52;102113.34;;;3.80;100.00
17260;BME280;8746;49.230;9.220;2023-02-12T08:06:23;102114.19;;;3.79;100.00
17260;BME280;8746;49.230;9.220;2023-02-12T08:08:53;102107.22;;;3.78;100.00
17260;BME280;8746;49.230;9.220;2023-02-12T08:11:20;102103.25;;;3.95;100.00
17260;BME280;8746;49.230;9.220;2023-02-12T08:13:46;102107.41;;;3.85;100.00
17260;BME280;8746;49.230;9.220;2023-02-12T08:16:14;102108.34;;;3.89;100.00
17260;BME280;8746;49.230;9.220;2023-02-12T08:18:40;102101.50;;;3.94;100.00
17260;BME280;8746;49.230;9.220;2023-02-12T08:21:08;102106.63;;;3.91;99.88
17260;BME280;8746;49.230;9.220;2023-02-12T08:23:34;102103.25;;;3.95;100.00
17260;BME280;8746;49.230;9.220;2023-02-12T08:26:13;102103.25;;;3.95;100.00
17260;BME280;8746;49.230;9.220;2023-02-12T08:28:41;102105.28;;;4.09;99.85
17260;BME280;8746;49.230;9.220;2023-02-12T08:31:10;102102.50;;;4.01;100.00
17260;BME280;8746;49.230;9.220;2023-02-12T08:33:36;102103.41;;;4.01;100.00
17260;BME280;8746;49.230;9.220;2023-02-12T08:36:11;102107.19;;;4.16;99.22
17260;BME280;8746;49.230;9.220;2023-02-12T08:38:38;102102.22;;;4.28;99.40
17260;BME280;8746;49.230;9.220;2023-02-12T08:41:06;102109.81;;;4.16;99.64
17260;BME280;8746;49.230;9.220;2023-02-12T08:43:32;102110.78;;;4.21;99.63
17260;BME280;8746;49.230;9.220;2023-02-12T08:46:05;102110.66;;;4.16;99.85
17260;BME280;8746;49.230;9.220;2023-02-12T08:48:31;102110.78;;;4.21;100.00
17260;BME280;8746;49.230;9.220;2023-02-12T08:51:03;102110.13;;;4.33;99.33
17260;BME280;8746;49.230;9.220;2023-02-12T08:53:28;102111.03;;;4.33;99.58
17260;BME280;8746;49.230;9.220;2023-02-12T08:55:54;102114.06;;;4.55;98.68
17260;BME280;8746;49.230;9.220;2023-02-12T08:58:19;102113.06;;;4.48;98.33
17260;BME280;8746;49.230;9.220;2023-02-12T09:00:44;102122.22;;;4.28;99.14
17260;BME280;8746;49.230;9.220;2023-02-12T09:03:10;102121.69;;;4.44;98.48
17260;BME280;8746;49.230;9.220;2023-02-12T09:05:39;102126.72;;;4.35;98.93
17260;BME280;8746;49.230;9.220;2023-02-12T09:08:06;102119.25;;;4.54;98.83
17260;BME280;8746;49.230;9.220;2023-02-12T09:10:31;102122.72;;;4.53;98.78
17260;BME280;8746;49.230;9.220;2023-02-12T09:12:56;102129.09;;;4.67;97.71
17260;BME280;8746;49.230;9.220;2023-02-12T09:15:22;102116.72;;;4.58;98.55
17260;BME280;8746;49.230;9.220;2023-02-12T09:17:47;102116.72;;;4.58;98.48
17260;BME280;8746;49.230;9.220;2023-02-12T09:20:13;102125.50;;;4.60;98.26
17260;BME280;8746;49.230;9.220;2023-02-12T09:22:38;102120.38;;;4.67;97.91
17260;BME280;8746;49.230;9.220;2023-02-12T09:25:04;102124.72;;;4.66;98.09
17260;BME280;8746;49.230;9.220;2023-02-12T09:27:30;102127.63;;;4.80;97.70
17260;BME280;8746;49.230;9.220;2023-02-12T09:29:56;102124.31;;;4.90;97.22
17260;BME280;8746;49.230;9.220;2023-02-12T09:32:21;102117.16;;;4.80;97.96
17260;BME280;8746;49.230;9.220;2023-02-12T09:34:46;102118.03;;;4.80;98.03
17260;BME280;8746;49.230;9.220;2023-02-12T09:37:12;102115.06;;;5.11;96.39
17260;BME280;8746;49.230;9.220;2023-02-12T09:39:37;102115.81;;;5.04;96.93
17260;BME280;8746;49.230;9.220;2023-02-12T09:42:12;102113.94;;;4.96;97.32
17260;BME280;8746;49.230;9.220;2023-02-12T09:52:25;102118.72;;;5.19;96.87
17260;BME280;8746;49.230;9.220;2023-02-12T09:54:51;102122.72;;;5.00;97.50
17260;BME280;8746;49.230;9.220;2023-02-12T09:57:25;102116.84;;;5.12;97.30
17260;BME280;8746;49.230;9.220;2023-02-12T09:59:58;102119.47;;;5.12;97.10
17260;BME280;8746;49.230;9.220;2023-02-12T10:02:26;102116.09;;;5.19;97.06
17260;BME280;8746;49.230;9.220;2023-02-12T10:04:52;102109.09;;;5.18;96.95
17260;BME280;8746;49.230;9.220;2023-02-12T10:12:52;102113.03;;;5.46;95.94
17260;BME280;8746;49.230;9.220;2023-02-12T10:18:15;102107.28;;;5.69;94.63
17260;BME280;8746;49.230;9.220;2023-02-12T10:20:51;102114.28;;;5.70;94.80
17260;BME280;8746;49.230;9.220;2023-02-12T10:23:30;102115.59;;;5.99;94.13
17260;BME280;8746;49.230;9.220;2023-02-12T10:26:11;102104.50;;;5.58;95.51
17260;BME280;8746;49.230;9.220;2023-02-12T10:28:40;102099.69;;;5.86;95.12
17260;BME280;8746;49.230;9.220;2023-02-12T10:31:31;102099.88;;;5.99;93.73
17260;BME280;8746;49.230;9.220;2023-02-12T10:33:59;102103.06;;;5.79;94.75
17260;BME280;8746;49.230;9.220;2023-02-12T10:36:46;102101.31;;;5.78;95.05
17260;BME280;8746;49.230;9.220;2023-02-12T10:39:20;102106.63;;;5.84;94.93
17260;BME280;8746;49.230;9.220;2023-02-12T10:41:53;102111.59;;;5.66;95.52
17260;BME280;8746;49.230;9.220;2023-02-12T10:44:19;102114.22;;;5.66;95.47
17260;BME280;8746;49.230;9.220;2023-02-12T10:46:45;102106.47;;;5.75;95.52
17260;BME280;8746;49.230;9.220;2023-02-12T10:49:14;102105.00;;;5.92;95.35
17260;BME280;8746;49.230;9.220;2023-02-12T10:51:55;102102.59;;;6.06;94.84
17260;BME280;8746;49.230;9.220;2023-02-12T10:54:37;102101.03;;;6.19;93.56
17260;BME280;8746;49.230;9.220;2023-02-12T10:57:13;102093.09;;;6.16;93.87
17260;BME280;8746;49.230;9.220;2023-02-12T10:59:41;102100.16;;;6.20;94.02
17260;BME280;8746;49.230;9.220;2023-02-12T11:02:35;102091.47;;;6.24;92.93
17260;BME280;8746;49.230;9.220;2023-02-12T11:05:21;102077.59;;;6.33;92.46
17260;BME280;8746;49.230;9.220;2023-02-12T11:07:49;102081.06;;;6.31;92.09
17260;BME280;8746;49.230;9.220;2023-02-12T11:10:27;102072.41;;;6.38;92.34
17260;BME280;8746;49.230;9.220;2023-02-12T11:12:54;102079.44;;;6.42;91.71
17260;BME280;8746;49.230;9.220;2023-02-12T11:15:22;102081.31;;;6.54;91.16
17260;BME280;8746;49.230;9.220;2023-02-12T11:17:56;102077.03;;;6.64;91.89
17260;BME280;8746;49.230;9.220;2023-02-12T11:20:38;102074.25;;;6.48;91.29
17260;BME280;8746;49.230;9.220;2023-02-12T11:23:21;102070.09;;;6.67;91.61
17260;BME280;8746;49.230;9.220;2023-02-12T11:26:01;102068.25;;;6.57;90.67
17260;BME280;8746;49.230;9.220;2023-02-12T11:28:27;102067.41;;;6.63;90.63
17260;BME280;8746;49.230;9.220;2023-02-12T11:31:01;102064.00;;;6.71;90.86
17260;BME280;8746;49.230;9.220;2023-02-12T11:33:35;102059.00;;;6.98;89.02
17260;BME280;8746;49.230;9.220;2023-02-12T11:36:04;102073.84;;;6.94;89.47
17260;BME280;8746;49.230;9.220;2023-02-12T11:38:57;102068.50;;;6.83;89.85
17260;BME280;8746;49.230;9.220;2023-02-12T11:41:29;102060.88;;;7.11;89.02
17260;BME280;8746;49.230;9.220;2023-02-12T11:43:59;102056.63;;;7.29;88.43
17260;BME280;8746;49.230;9.220;2023-02-12T11:46:26;102052.41;;;7.52;88.16
17260;BME280;8746;49.230;9.220;2023-02-12T11:48:53;102048.00;;;7.48;86.97
17260;BME280;8746;49.230;9.220;2023-02-12T11:51:24;102044.63;;;7.68;87.66
17260;BME280;8746;49.230;9.220;2023-02-12T11:53:52;102043.78;;;7.75;86.14
17260;BME280;8746;49.230;9.220;2023-02-12T11:56:19;102045.59;;;7.85;85.70
17260;BME280;8746;49.230;9.220;2023-02-12T11:58:46;102036.00;;;7.95;85.85
17260;BME280;8746;49.230;9.220;2023-02-12T12:01:31;102036.91;;;7.99;84.75
17260;BME280;8746;49.230;9.220;2023-02-12T12:04:13;102038.59;;;7.89;84.67
17260;BME280;8746;49.230;9.220;2023-02-12T12:06:46;102039.63;;;8.33;84.21
17260;BME280;8746;49.230;9.220;2023-02-12T12:12:21;102032.56;;;8.19;83.45
17260;BME280;8746;49.230;9.220;2023-02-12T12:15:00;102030.94;;;8.62;82.77
17260;BME280;8746;49.230;9.220;2023-02-12T12:17:57;102031.81;;;8.47;82.71
17260;BME280;8746;49.230;9.220;2023-02-12T12:20:52;102018.69;;;8.76;82.13
17260;BME280;8746;49.230;9.220;2023-02-12T12:23:24;102017.81;;;8.93;81.52
17260;BME280;8746;49.230;9.220;2023-02-12T12:25:57;102014.31;;;9.03;81.48
17260;BME280;8746;49.230;9.220;2023-02-12T12:31:24;102013.41;;;8.62;83.15
17260;BME280;8746;49.230;9.220;2023-02-12T12:34:01;102013.41;;;8.67;82.19
17260;BME280;8746;49.230;9.220;2023-02-12T12:39:42;102010.81;;;8.76;81.09
17260;BME280;8746;49.230;9.220;2023-02-12T12:48:07;102008.16;;;8.96;80.50
17260;BME280;8746;49.230;9.220;2023-02-12T12:51:39;102000.28;;;8.76;80.46
17260;BME280;8746;49.230;9.220;2023-02-12T12:53:59;101993.22;;;8.60;81.53
17260;BME280;8746;49.230;9.220;2023-02-12T13:04:46;101979.19;;;9.23;80.46
17260;BME280;8746;49.230;9.220;2023-02-12T13:18:11;101959.00;;;9.06;78.91
17260;BME280;8746;49.230;9.220;2023-02-12T13:20:59;101957.25;;;9.02;79.06
17260;BME280;8746;49.230;9.220;2023-02-12T13:23:37;101953.78;;;8.97;79.19
17260;BME280;8746;49.230;9.220;2023-02-12T13:26:14;101957.28;;;9.01;79.88
17260;BME280;8746;49.230;9.220;2023-02-12T13:28:45;101950.25;;;9.00;80.32
17260;BME280;8746;49.230;9.220;2023-02-12T13:31:17;101964.31;;;8.86;80.81
17260;BME280;8746;49.230;9.220;2023-02-12T13:33:54;101940.59;;;8.98;80.84
17260;BME280;8746;49.230;9.220;2023-02-12T13:36:21;101930.91;;;9.05;80.27
17260;BME280;8746;49.230;9.220;2023-02-12T13:41:19;101937.09;;;8.98;80.50
17260;BME280;8746;49.230;9.220;2023-02-12T13:46:30;101943.22;;;8.89;81.04
17260;BME280;8746;49.230;9.220;2023-02-12T13:54:21;101931.78;;;9.17;80.26
17260;BME280;8746;49.230;9.220;2023-02-12T13:56:51;101924.75;;;9.19;79.68
17260;BME280;8746;49.230;9.220;2023-02-12T14:02:01;101921.22;;;9.34;78.41
17260;BME280;8746;49.230;9.220;2023-02-12T14:04:34;101925.56;;;9.44;78.14
17260;BME280;8746;49.230;9.220;2023-02-12T14:07:04;101924.66;;;9.50;78.88
17260;BME280;8746;49.230;9.220;2023-02-12T14:09:32;101922.91;;;9.45;77.99
17260;BME280;8746;49.230;9.220;2023-02-12T14:11:59;101918.56;;;9.40;78.50
17260;BME280;8746;49.230;9.220;2023-02-12T14:14:30;101909.81;;;9.35;78.41
17260;BME280;8746;49.230;9.220;2023-02-12T14:16:56;101911.53;;;9.37;79.38
17260;BME280;8746;49.230;9.220;2023-02-12T14:19:38;101920.28;;;9.49;79.19
17260;BME280;8746;49.230;9.220;2023-02-12T14:22:12;101912.44;;;9.30;79.51
17260;BME280;8746;49.230;9.220;2023-02-12T14:37:56;101900.16;;;9.29;79.51
17260;BME280;8746;49.230;9.220;2023-02-12T14:44:01;101889.56;;;9.38;79.08
17260;BME280;8746;49.230;9.220;2023-02-12T14:48:59;101897.47;;;9.40;79.11
17260;BME280;8746;49.230;9.220;2023-02-12T14:51:41;101899.22;;;9.42;78.96
17260;BME280;8746;49.230;9.220;2023-02-12T14:54:29;101900.06;;;9.48;78.84
17260;BME280;8746;49.230;9.220;2023-02-12T14:56:58;101889.56;;;9.44;78.54
17260;BME280;8746;49.230;9.220;2023-02-12T14:59:26;101886.84;;;9.55;78.46
17260;BME280;8746;49.230;9.220;2023-02-12T15:01:54;101886.03;;;9.45;79.03
17260;BME280;8746;49.230;9.220;2023-02-12T15:04:29;101892.16;;;9.52;77.82
17260;BME280;8746;49.230;9.220;2023-02-12T15:06:58;101879.81;;;9.62;77.86
17260;BME280;8746;49.230;9.220;2023-02-12T15:09:50;101885.97;;;9.64;77.76
17260;BME280;8746;49.230;9.220;2023-02-12T15:12:29;101885.91;;;9.69;77.90
17260;BME280;8746;49.230;9.220;2023-02-12T15:17:54;101879.81;;;9.62;78.11
17260;BME280;8746;49.230;9.220;2023-02-12T15:20:25;101882.41;;;9.65;78.01
17260;BME280;8746;49.230;9.220;2023-02-12T15:22:52;101880.63;;;9.73;77.75
17260;BME280;8746;49.230;9.220;2023-02-12T15:27:52;101875.41;;;9.61;78.40
17260;BME280;8746;49.230;9.220;2023-02-12T15:30:23;101872.72;;;9.72;77.87
17260;BME280;8746;49.230;9.220;2023-02-12T15:32:50;101869.28;;;9.62;78.58